sensor_id;sensor_type;location;lat;lon;timestamp;P1;durP1;ratioP1;P2;durP2;ratioP2
38023;SDS011;23834;48.080;11.682;2023-01-10T00:01:51;0.50;;;0.40;;
38023;SDS011;23834;48.080;11.682;2023-01-10T00:04:17;0.60;;;0.40;;
38023;SDS011;23834;48.080;11.682;2023-01-10T00:06:42;0.70;;;0.50;;
38023;SDS011;23834;48.080;11.682;2023-01-10T00:09:08;0.70;;;0.50;;
38023;SDS011;23834;48.080;11.682;2023-01-10T00:11:33;0.80;;;0.60;;
38023;SDS011;23834;48.080;11.682;2023-01-10T00:14:17;0.73;;;0.50;;
38023;SDS011;23834;48.080;11.682;2023-01-10T00:16:42;0.50;;;0.50;;
38023;SDS011;23834;48.080;11.682;2023-01-10T00:19:07;0.50;;;0.50;;
38023;SDS011;23834;48.080;11.682;2023-01-10T00:21:34;0.60;;;0.50;;
38023;SDS011;23834;48.080;11.682;2023-01-10T00:23:59;0.50;;;0.50;;
38023;SDS011;23834;48.080;11.682;2023-01-10T00:26:32;0.60;;;0.47;;
38023;SDS011;23834;48.080;11.682;2023-01-10T00:28:58;0.70;;;0.60;;
38023;SDS011;23834;48.080;11.682;2023-01-10T00:31:23;0.87;;;0.40;;
38023;SDS011;23834;48.080;11.682;2023-01-10T00:33:48;0.90;;;0.50;;
38023;SDS011;23834;48.080;11.682;2023-01-10T00:36:13;0.53;;;0.40;;
38023;SDS011;23834;48.080;11.682;2023-01-10T00:38:38;0.87;;;0.60;;
38023;SDS011;23834;48.080;11.682;2023-01-10T00:41:03;0.50;;;0.40;;
38023;SDS011;23834;48.080;11.682;2023-01-10T00:43:49;0.50;;;0.50;;
38023;SDS011;23834;48.080;11.682;2023-01-10T00:46:23;0.50;;;0.40;;
38023;SDS011;23834;48.080;11.682;2023-01-10T00:48:49;0.50;;;0.40;;
38023;SDS011;23834;48.080;11.682;2023-01-10T00:51:14;1.87;;;0.77;;
38023;SDS011;23834;48.080;11.682;2023-01-10T00:53:39;0.60;;;0.50;;
38023;SDS011;23834;48.080;11.682;2023-01-10T00:56:04;0.50;;;0.40;;
38023;SDS011;23834;48.080;11.682;2023-01-10T00:58:30;0.50;;;0.47;;
38023;SDS011;23834;48.080;11.682;2023-01-10T01:00:56;0.70;;;0.50;;
38023;SDS011;23834;48.080;11.682;2023-01-10T01:03:22;0.70;;;0.50;;
38023;SDS011;23834;48.080;11.682;2023-01-10T01:05:47;1.00;;;0.40;;
38023;SDS011;23834;48.080;11.682;2023-01-10T01:08:15;0.50;;;0.40;;
38023;SDS011;23834;48.080;11.682;2023-01-10T01:10:41;0.50;;;0.43;;
38023;SDS011;23834;48.080;11.682;2023-01-10T01:13:11;0.60;;;0.37;;
38023;SDS011;23834;48.080;11.682;2023-01-10T01:15:36;0.70;;;0.50;;
38023;SDS011;23834;48.080;11.682;2023-01-10T01:18:01;0.77;;;0.60;;
38023;SDS011;23834;48.080;11.682;2023-01-10T01:20:27;0.60;;;0.60;;
38023;SDS011;23834;48.080;11.682;2023-01-10T01:22:52;0.60;;;0.50;;
38023;SDS011;23834;48.080;11.682;2023-01-10T01:25:17;0.90;;;0.70;;
38023;SDS011;23834;48.080;11.682;2023-01-10T01:27:42;0.60;;;0.40;;
38023;SDS011;23834;48.080;11.682;2023-01-10T01:30:08;0.43;;;0.43;;
38023;SDS011;23834;48.080;11.682;2023-01-10T01:32:34;0.80;;;0.60;;
38023;SDS011;23834;48.080;11.682;2023-01-10T01:34:59;0.50;;;0.40;;
38023;SDS011;23834;48.080;11.682;2023-01-10T01:37:24;0.50;;;0.40;;
38023;SDS011;23834;48.080;11.682;2023-01-10T01:39:49;1.33;;;0.50;;
38023;SDS011;23834;48.080;11.682;2023-01-10T01:42:31;0.60;;;0.50;;
38023;SDS011;23834;48.080;11.682;2023-01-10T01:47:40;0.40;;;0.40;;
38023;SDS011;23834;48.080;11.682;2023-01-10T01:50:12;0.70;;;0.53;;
38023;SDS011;23834;48.080;11.682;2023-01-10T01:52:39;0.60;;;0.50;;
38023;SDS011;23834;48.080;11.682;2023-01-10T01:55:04;0.73;;;0.50;;
38023;SDS011;23834;48.080;11.682;2023-01-10T01:57:30;0.67;;;0.50;;
38023;SDS011;23834;48.080;11.682;2023-01-10T01:59:56;0.50;;;0.40;;
38023;SDS011;23834;48.080;11.682;2023-01-10T02:02:22;0.50;;;0.40;;
38023;SDS011;23834;48.080;11.682;2023-01-10T02:05:02;0.73;;;0.50;;
38023;SDS011;23834;48.080;11.682;2023-01-10T02:07:30;0.50;;;0.40;;
38023;SDS011;23834;48.080;11.682;2023-01-10T02:10:00;0.60;;;0.50;;
38023;SDS011;23834;48.080;11.682;2023-01-10T02:12:27;0.50;;;0.50;;
38023;SDS011;23834;48.080;11.682;2023-01-10T02:14:54;0.57;;;0.50;;
38023;SDS011;23834;48.080;11.682;2023-01-10T02:17:19;0.50;;;0.40;;
38023;SDS011;23834;48.080;11.682;2023-01-10T02:19:55;0.50;;;0.40;;
38023;SDS011;23834;48.080;11.682;2023-01-10T02:33:38;0.67;;;0.50;;
38023;SDS011;23834;48.080;11.682;2023-01-10T02:38:37;0.60;;;0.50;;
38023;SDS011;23834;48.080;11.682;2023-01-10T02:43:38;0.50;;;0.30;;
38023;SDS011;23834;48.080;11.682;2023-01-10T02:46:06;0.50;;;0.50;;
38023;SDS011;23834;48.080;11.682;2023-01-10T02:48:32;0.77;;;0.50;;
38023;SDS011;23834;48.080;11.682;2023-01-10T02:51:16;1.43;;;0.43;;
38023;SDS011;23834;48.080;11.682;2023-01-10T02:53:46;0.40;;;0.30;;
38023;SDS011;23834;48.080;11.682;2023-01-10T03:06:18;0.50;;;0.40;;
38023;SDS011;23834;48.080;11.682;2023-01-10T03:11:11;1.15;;;0.40;;
38023;SDS011;23834;48.080;11.682;2023-01-10T03:13:40;0.40;;;0.40;;
38023;SDS011;23834;48.080;11.682;2023-01-10T03:16:08;0.50;;;0.40;;
38023;SDS011;23834;48.080;11.682;2023-01-10T03:18:47;0.67;;;0.40;;
38023;SDS011;23834;48.080;11.682;2023-01-10T03:21:15;0.80;;;0.40;;
38023;SDS011;23834;48.080;11.682;2023-01-10T03:23:42;0.40;;;0.30;;
38023;SDS011;23834;48.080;11.682;2023-01-10T03:26:09;0.60;;;0.40;;
38023;SDS011;23834;48.080;11.682;2023-01-10T03:29:18;0.40;;;0.40;;
38023;SDS011;23834;48.080;11.682;2023-01-10T03:31:25;0.70;;;0.50;;
38023;SDS011;23834;48.080;11.682;2023-01-10T03:33:52;0.77;;;0.40;;
38023;SDS011;23834;48.080;11.682;2023-01-10T03:36:27;0.40;;;0.40;;
38023;SDS011;23834;48.080;11.682;2023-01-10T03:38:56;0.60;;;0.50;;
38023;SDS011;23834;48.080;11.682;2023-01-10T03:46:40;0.50;;;0.40;;
38023;SDS011;23834;48.080;11.682;2023-01-10T03:49:06;0.40;;;0.30;;
38023;SDS011;23834;48.080;11.682;2023-01-10T03:51:32;0.73;;;0.40;;
38023;SDS011;23834;48.080;11.682;2023-01-10T03:54:00;0.60;;;0.47;;
38023;SDS011;23834;48.080;11.682;2023-01-10T03:56:26;0.50;;;0.30;;
38023;SDS011;23834;48.080;11.682;2023-01-10T03:58:51;0.40;;;0.33;;
38023;SDS011;23834;48.080;11.682;2023-01-10T04:01:17;0.50;;;0.40;;
38023;SDS011;23834;48.080;11.682;2023-01-10T04:03:42;0.50;;;0.40;;
38023;SDS011;23834;48.080;11.682;2023-01-10T04:06:07;0.40;;;0.30;;
38023;SDS011;23834;48.080;11.682;2023-01-10T04:08:32;0.50;;;0.40;;
38023;SDS011;23834;48.080;11.682;2023-01-10T04:10:58;0.50;;;0.50;;
38023;SDS011;23834;48.080;11.682;2023-01-10T04:13:23;1.20;;;0.50;;
38023;SDS011;23834;48.080;11.682;2023-01-10T04:15:48;0.60;;;0.50;;
38023;SDS011;23834;48.080;11.682;2023-01-10T04:18:14;0.50;;;0.40;;
38023;SDS011;23834;48.080;11.682;2023-01-10T04:20:39;0.90;;;0.40;;
38023;SDS011;23834;48.080;11.682;2023-01-10T04:23:05;1.23;;;0.40;;
38023;SDS011;23834;48.080;11.682;2023-01-10T04:25:30;0.40;;;0.30;;
38023;SDS011;23834;48.080;11.682;2023-01-10T04:27:55;0.40;;;0.30;;
38023;SDS011;23834;48.080;11.682;2023-01-10T04:30:20;0.80;;;0.43;;
38023;SDS011;23834;48.080;11.682;2023-01-10T04:32:46;0.50;;;0.40;;
38023;SDS011;23834;48.080;11.682;2023-01-10T04:35:11;0.93;;;0.40;;
38023;SDS011;23834;48.080;11.682;2023-01-10T04:37:36;0.50;;;0.50;;
38023;SDS011;23834;48.080;11.682;2023-01-10T04:40:02;0.50;;;0.40;;
38023;SDS011;23834;48.080;11.682;2023-01-10T04:42:27;0.70;;;0.30;;
38023;SDS011;23834;48.080;11.682;2023-01-10T04:44:52;0.40;;;0.30;;
38023;SDS011;23834;48.080;11.682;2023-01-10T04:47:17;0.50;;;0.40;;
38023;SDS011;23834;48.080;11.682;2023-01-10T04:49:43;0.50;;;0.40;;
38023;SDS011;23834;48.080;11.682;2023-01-10T04:52:08;0.53;;;0.40;;
38023;SDS011;23834;48.080;11.682;2023-01-10T04:54:34;0.40;;;0.30;;
38023;SDS011;23834;48.080;11.682;2023-01-10T04:56:59;0.50;;;0.40;;
38023;SDS011;23834;48.080;11.682;2023-01-10T04:59:24;0.40;;;0.30;;
38023;SDS011;23834;48.080;11.682;2023-01-10T05:01:49;0.53;;;0.40;;
38023;SDS011;23834;48.080;11.682;2023-01-10T05:04:15;0.50;;;0.40;;
38023;SDS011;23834;48.080;11.682;2023-01-10T05:06:40;0.60;;;0.50;;
38023;SDS011;23834;48.080;11.682;2023-01-10T05:09:06;0.40;;;0.30;;
38023;SDS011;23834;48.080;11.682;2023-01-10T05:11:31;0.50;;;0.40;;
38023;SDS011;23834;48.080;11.682;2023-01-10T05:13:56;0.50;;;0.40;;
38023;SDS011;23834;48.080;11.682;2023-01-10T05:16:21;0.80;;;0.40;;
38023;SDS011;23834;48.080;11.682;2023-01-10T05:18:46;0.40;;;0.30;;
38023;SDS011;23834;48.080;11.682;2023-01-10T05:21:12;0.83;;;0.47;;
38023;SDS011;23834;48.080;11.682;2023-01-10T05:23:38;0.60;;;0.40;;
38023;SDS011;23834;48.080;11.682;2023-01-10T05:26:04;0.40;;;0.37;;
38023;SDS011;23834;48.080;11.682;2023-01-10T05:28:29;0.60;;;0.37;;
38023;SDS011;23834;48.080;11.682;2023-01-10T05:30:54;0.50;;;0.40;;
38023;SDS011;23834;48.080;11.682;2023-01-10T05:33:20;0.60;;;0.30;;
38023;SDS011;23834;48.080;11.682;2023-01-10T05:35:45;0.70;;;0.40;;
38023;SDS011;23834;48.080;11.682;2023-01-10T05:38:10;0.93;;;0.50;;
38023;SDS011;23834;48.080;11.682;2023-01-10T05:40:35;0.50;;;0.47;;
38023;SDS011;23834;48.080;11.682;2023-01-10T05:43:00;0.90;;;0.40;;
38023;SDS011;23834;48.080;11.682;2023-01-10T05:45:26;0.53;;;0.43;;
38023;SDS011;23834;48.080;11.682;2023-01-10T05:47:51;0.50;;;0.40;;
38023;SDS011;23834;48.080;11.682;2023-01-10T05:50:16;0.50;;;0.40;;
38023;SDS011;23834;48.080;11.682;2023-01-10T05:52:41;1.10;;;0.40;;
38023;SDS011;23834;48.080;11.682;2023-01-10T05:55:06;0.50;;;0.40;;
38023;SDS011;23834;48.080;11.682;2023-01-10T05:57:32;0.50;;;0.40;;
38023;SDS011;23834;48.080;11.682;2023-01-10T05:59:57;0.60;;;0.40;;
38023;SDS011;23834;48.080;11.682;2023-01-10T06:02:22;0.90;;;0.47;;
38023;SDS011;23834;48.080;11.682;2023-01-10T06:04:48;0.40;;;0.40;;
38023;SDS011;23834;48.080;11.682;2023-01-10T06:07:13;1.47;;;0.40;;
38023;SDS011;23834;48.080;11.682;2023-01-10T06:09:39;0.50;;;0.40;;
38023;SDS011;23834;48.080;11.682;2023-01-10T06:12:04;0.50;;;0.40;;
38023;SDS011;23834;48.080;11.682;2023-01-10T06:14:29;0.90;;;0.40;;
38023;SDS011;23834;48.080;11.682;2023-01-10T06:16:54;0.67;;;0.50;;
38023;SDS011;23834;48.080;11.682;2023-01-10T06:19:19;0.40;;;0.40;;
38023;SDS011;23834;48.080;11.682;2023-01-10T06:21:45;0.50;;;0.40;;
38023;SDS011;23834;48.080;11.682;2023-01-10T06:24:10;0.60;;;0.37;;
38023;SDS011;23834;48.080;11.682;2023-01-10T06:26:35;0.40;;;0.40;;
38023;SDS011;23834;48.080;11.682;2023-01-10T06:29:00;0.60;;;0.40;;
38023;SDS011;23834;48.080;11.682;2023-01-10T06:31:26;0.50;;;0.30;;
38023;SDS011;23834;48.080;11.682;2023-01-10T06:33:51;0.50;;;0.30;;
38023;SDS011;23834;48.080;11.682;2023-01-10T06:36:16;2.73;;;0.30;;
38023;SDS011;23834;48.080;11.682;2023-01-10T06:38:42;0.50;;;0.40;;
38023;SDS011;23834;48.080;11.682;2023-01-10T06:41:07;0.60;;;0.40;;
38023;SDS011;23834;48.080;11.682;2023-01-10T06:43:47;0.50;;;0.40;;
38023;SDS011;23834;48.080;11.682;2023-01-10T06:46:13;0.50;;;0.50;;
38023;SDS011;23834;48.080;11.682;2023-01-10T06:48:40;0.50;;;0.50;;
38023;SDS011;23834;48.080;11.682;2023-01-10T06:51:07;1.07;;;0.30;;
38023;SDS011;23834;48.080;11.682;2023-01-10T06:53:33;1.07;;;0.40;;
38023;SDS011;23834;48.080;11.682;2023-01-10T06:55:58;0.60;;;0.40;;
38023;SDS011;23834;48.080;11.682;2023-01-10T06:58:23;0.47;;;0.40;;
38023;SDS011;23834;48.080;11.682;2023-01-10T07:00:48;0.63;;;0.40;;
38023;SDS011;23834;48.080;11.682;2023-01-10T07:03:14;0.50;;;0.50;;
38023;SDS011;23834;48.080;11.682;2023-01-10T07:05:39;0.70;;;0.60;;
38023;SDS011;23834;48.080;11.682;2023-01-10T07:08:04;0.70;;;0.47;;
38023;SDS011;23834;48.080;11.682;2023-01-10T07:10:30;1.33;;;0.50;;
38023;SDS011;23834;48.080;11.682;2023-01-10T07:12:55;0.80;;;0.50;;
38023;SDS011;23834;48.080;11.682;2023-01-10T07:15:20;0.50;;;0.40;;
38023;SDS011;23834;48.080;11.682;2023-01-10T07:17:45;1.00;;;0.90;;
38023;SDS011;23834;48.080;11.682;2023-01-10T07:20:11;0.60;;;0.60;;
38023;SDS011;23834;48.080;11.682;2023-01-10T07:22:36;2.10;;;0.67;;
38023;SDS011;23834;48.080;11.682;2023-01-10T07:25:02;1.00;;;0.60;;
38023;SDS011;23834;48.080;11.682;2023-01-10T07:27:29;0.50;;;0.40;;
38023;SDS011;23834;48.080;11.682;2023-01-10T07:29:54;0.70;;;0.67;;
38023;SDS011;23834;48.080;11.682;2023-01-10T07:32:19;0.60;;;0.60;;
38023;SDS011;23834;48.080;11.682;2023-01-10T07:34:44;0.67;;;0.50;;
38023;SDS011;23834;48.080;11.682;2023-01-10T07:37:09;1.07;;;0.80;;
38023;SDS011;23834;48.080;11.682;2023-01-10T07:39:35;0.60;;;0.50;;
38023;SDS011;23834;48.080;11.682;2023-01-10T07:42:00;0.93;;;0.53;;
38023;SDS011;23834;48.080;11.682;2023-01-10T07:44:25;1.43;;;0.90;;
38023;SDS011;23834;48.080;11.682;2023-01-10T07:46:50;1.13;;;0.60;;
38023;SDS011;23834;48.080;11.682;2023-01-10T07:49:15;1.00;;;0.67;;
38023;SDS011;23834;48.080;11.682;2023-01-10T07:51:41;1.37;;;0.80;;
38023;SDS011;23834;48.080;11.682;2023-01-10T07:54:06;1.57;;;0.60;;
38023;SDS011;23834;48.080;11.682;2023-01-10T07:56:31;0.70;;;0.50;;
38023;SDS011;23834;48.080;11.682;2023-01-10T07:58:56;1.03;;;0.70;;
38023;SDS011;23834;48.080;11.682;2023-01-10T08:01:22;1.73;;;0.60;;
38023;SDS011;23834;48.080;11.682;2023-01-10T08:03:48;0.80;;;0.50;;
38023;SDS011;23834;48.080;11.682;2023-01-10T08:06:13;0.60;;;0.50;;
38023;SDS011;23834;48.080;11.682;2023-01-10T08:08:39;0.63;;;0.53;;
38023;SDS011;23834;48.080;11.682;2023-01-10T08:11:05;0.73;;;0.50;;
38023;SDS011;23834;48.080;11.682;2023-01-10T08:13:30;1.07;;;0.70;;
38023;SDS011;23834;48.080;11.682;2023-01-10T08:15:56;1.33;;;0.80;;
38023;SDS011;23834;48.080;11.682;2023-01-10T08:18:22;0.50;;;0.50;;
38023;SDS011;23834;48.080;11.682;2023-01-10T08:20:48;0.73;;;0.70;;
38023;SDS011;23834;48.080;11.682;2023-01-10T08:23:13;1.13;;;0.60;;
38023;SDS011;23834;48.080;11.682;2023-01-10T08:25:39;0.73;;;0.50;;
38023;SDS011;23834;48.080;11.682;2023-01-10T08:28:04;0.67;;;0.50;;
38023;SDS011;23834;48.080;11.682;2023-01-10T08:30:29;0.60;;;0.60;;
38023;SDS011;23834;48.080;11.682;2023-01-10T08:32:54;0.80;;;0.50;;
38023;SDS011;23834;48.080;11.682;2023-01-10T08:35:19;1.27;;;0.60;;
38023;SDS011;23834;48.080;11.682;2023-01-10T08:37:45;0.60;;;0.50;;
38023;SDS011;23834;48.080;11.682;2023-01-10T08:40:10;1.17;;;0.67;;
38023;SDS011;23834;48.080;11.682;2023-01-10T08:42:35;1.07;;;0.60;;
38023;SDS011;23834;48.080;11.682;2023-01-10T08:45:00;1.00;;;0.90;;
38023;SDS011;23834;48.080;11.682;2023-01-10T08:47:26;0.80;;;0.60;;
38023;SDS011;23834;48.080;11.682;2023-01-10T08:49:51;0.70;;;0.60;;
38023;SDS011;23834;48.080;11.682;2023-01-10T08:52:17;1.10;;;0.60;;
38023;SDS011;23834;48.080;11.682;2023-01-10T08:54:42;1.17;;;0.70;;
38023;SDS011;23834;48.080;11.682;2023-01-10T08:57:07;0.80;;;0.50;;
38023;SDS011;23834;48.080;11.682;2023-01-10T08:59:32;1.03;;;0.67;;
38023;SDS011;23834;48.080;11.682;2023-01-10T09:01:57;0.70;;;0.70;;
38023;SDS011;23834;48.080;11.682;2023-01-10T09:04:23;2.07;;;0.70;;
38023;SDS011;23834;48.080;11.682;2023-01-10T09:06:50;0.60;;;0.60;;
38023;SDS011;23834;48.080;11.682;2023-01-10T09:09:15;1.00;;;0.43;;
38023;SDS011;23834;48.080;11.682;2023-01-10T09:11:40;0.60;;;0.50;;
38023;SDS011;23834;48.080;11.682;2023-01-10T09:14:05;0.60;;;0.60;;
38023;SDS011;23834;48.080;11.682;2023-01-10T09:16:31;1.33;;;0.70;;
38023;SDS011;23834;48.080;11.682;2023-01-10T09:18:56;1.37;;;0.47;;
38023;SDS011;23834;48.080;11.682;2023-01-10T09:21:21;0.93;;;0.70;;
38023;SDS011;23834;48.080;11.682;2023-01-10T09:23:47;1.33;;;0.67;;
38023;SDS011;23834;48.080;11.682;2023-01-10T09:26:12;0.70;;;0.50;;
38023;SDS011;23834;48.080;11.682;2023-01-10T09:28:37;2.20;;;0.60;;
38023;SDS011;23834;48.080;11.682;2023-01-10T09:31:02;0.50;;;0.50;;
38023;SDS011;23834;48.080;11.682;2023-01-10T09:33:29;0.60;;;0.50;;
38023;SDS011;23834;48.080;11.682;2023-01-10T09:35:56;1.77;;;0.60;;
38023;SDS011;23834;48.080;11.682;2023-01-10T09:38:21;0.90;;;0.60;;
38023;SDS011;23834;48.080;11.682;2023-01-10T09:43:24;0.90;;;0.60;;
38023;SDS011;23834;48.080;11.682;2023-01-10T09:45:55;1.63;;;0.57;;
38023;SDS011;23834;48.080;11.682;2023-01-10T09:49:05;0.50;;;0.50;;
38023;SDS011;23834;48.080;11.682;2023-01-10T09:51:20;0.80;;;0.60;;
38023;SDS011;23834;48.080;11.682;2023-01-10T09:53:48;0.50;;;0.50;;
38023;SDS011;23834;48.080;11.682;2023-01-10T09:56:14;1.03;;;0.60;;
38023;SDS011;23834;48.080;11.682;2023-01-10T09:58:40;0.70;;;0.50;;
38023;SDS011;23834;48.080;11.682;2023-01-10T10:01:10;0.80;;;0.80;;
38023;SDS011;23834;48.080;11.682;2023-01-10T10:03:42;0.60;;;0.60;;
38023;SDS011;23834;48.080;11.682;2023-01-10T10:06:12;0.60;;;0.60;;
38023;SDS011;23834;48.080;11.682;2023-01-10T10:08:38;0.60;;;0.60;;
38023;SDS011;23834;48.080;11.682;2023-01-10T10:16:13;0.73;;;0.70;;
38023;SDS011;23834;48.080;11.682;2023-01-10T10:18:46;0.70;;;0.50;;
38023;SDS011;23834;48.080;11.682;2023-01-10T10:21:27;1.80;;;0.60;;
38023;SDS011;23834;48.080;11.682;2023-01-10T10:23:59;1.23;;;0.63;;
38023;SDS011;23834;48.080;11.682;2023-01-10T10:37:00;0.50;;;0.40;;
38023;SDS011;23834;48.080;11.682;2023-01-10T10:39:37;1.43;;;0.57;;
38023;SDS011;23834;48.080;11.682;2023-01-10T10:42:04;1.17;;;0.70;;
38023;SDS011;23834;48.080;11.682;2023-01-10T10:46:58;0.80;;;0.60;;
38023;SDS011;23834;48.080;11.682;2023-01-10T10:51:55;1.50;;;0.70;;
38023;SDS011;23834;48.080;11.682;2023-01-10T10:54:20;1.07;;;1.03;;
38023;SDS011;23834;48.080;11.682;2023-01-10T10:56:47;1.00;;;0.57;;
38023;SDS011;23834;48.080;11.682;2023-01-10T10:59:14;0.87;;;0.60;;
38023;SDS011;23834;48.080;11.682;2023-01-10T11:01:40;1.17;;;0.40;;
38023;SDS011;23834;48.080;11.682;2023-01-10T11:04:11;0.97;;;0.67;;
38023;SDS011;23834;48.080;11.682;2023-01-10T11:06:37;1.17;;;0.50;;
38023;SDS011;23834;48.080;11.682;2023-01-10T11:09:04;1.47;;;0.60;;
38023;SDS011;23834;48.080;11.682;2023-01-10T11:11:35;0.80;;;0.57;;
38023;SDS011;23834;48.080;11.682;2023-01-10T11:14:03;0.60;;;0.50;;
38023;SDS011;23834;48.080;11.682;2023-01-10T11:16:29;0.70;;;0.60;;
38023;SDS011;23834;48.080;11.682;2023-01-10T11:21:38;0.83;;;0.70;;
38023;SDS011;23834;48.080;11.682;2023-01-10T11:24:05;0.70;;;0.70;;
38023;SDS011;23834;48.080;11.682;2023-01-10T11:26:38;1.47;;;0.70;;
38023;SDS011;23834;48.080;11.682;2023-01-10T11:29:12;0.80;;;0.60;;
38023;SDS011;23834;48.080;11.682;2023-01-10T11:31:38;1.00;;;0.60;;
38023;SDS011;23834;48.080;11.682;2023-01-10T11:34:04;1.63;;;0.60;;
38023;SDS011;23834;48.080;11.682;2023-01-10T11:36:50;1.53;;;0.80;;
38023;SDS011;23834;48.080;11.682;2023-01-10T11:39:15;0.80;;;0.60;;
38023;SDS011;23834;48.080;11.682;2023-01-10T11:41:41;1.03;;;0.63;;
38023;SDS011;23834;48.080;11.682;2023-01-10T11:46:44;0.90;;;0.70;;
38023;SDS011;23834;48.080;11.682;2023-01-10T11:49:11;0.70;;;0.53;;
38023;SDS011;23834;48.080;11.682;2023-01-10T11:51:46;0.60;;;0.60;;
38023;SDS011;23834;48.080;11.682;2023-01-10T11:54:19;1.17;;;0.60;;
38023;SDS011;23834;48.080;11.682;2023-01-10T11:56:55;1.63;;;0.70;;
38023;SDS011;23834;48.080;11.682;2023-01-10T11:59:21;1.13;;;0.73;;
38023;SDS011;23834;48.080;11.682;2023-01-10T12:01:51;1.37;;;0.80;;
38023;SDS011;23834;48.080;11.682;2023-01-10T12:04:17;0.67;;;0.67;;
38023;SDS011;23834;48.080;11.682;2023-01-10T12:06:45;2.60;;;0.60;;
38023;SDS011;23834;48.080;11.682;2023-01-10T12:12:30;1.20;;;0.80;;
38023;SDS011;23834;48.080;11.682;2023-01-10T12:14:49;1.60;;;0.70;;
38023;SDS011;23834;48.080;11.682;2023-01-10T12:17:28;1.07;;;0.90;;
38023;SDS011;23834;48.080;11.682;2023-01-10T12:19:54;0.80;;;0.70;;
38023;SDS011;23834;48.080;11.682;2023-01-10T12:22:44;1.63;;;0.70;;
38023;SDS011;23834;48.080;11.682;2023-01-10T12:25:13;1.47;;;0.97;;
38023;SDS011;23834;48.080;11.682;2023-01-10T12:27:39;0.87;;;0.70;;
38023;SDS011;23834;48.080;11.682;2023-01-10T12:30:06;1.03;;;0.70;;
38023;SDS011;23834;48.080;11.682;2023-01-10T12:32:37;0.87;;;0.87;;
38023;SDS011;23834;48.080;11.682;2023-01-10T12:35:06;1.90;;;0.80;;
38023;SDS011;23834;48.080;11.682;2023-01-10T12:37:36;3.00;;;0.90;;
38023;SDS011;23834;48.080;11.682;2023-01-10T12:42:52;1.20;;;1.10;;
38023;SDS011;23834;48.080;11.682;2023-01-10T12:45:39;1.07;;;0.90;;
38023;SDS011;23834;48.080;11.682;2023-01-10T12:50:40;2.10;;;1.00;;
38023;SDS011;23834;48.080;11.682;2023-01-10T12:55:39;1.30;;;1.17;;
38023;SDS011;23834;48.080;11.682;2023-01-10T12:58:05;1.10;;;0.87;;
38023;SDS011;23834;48.080;11.682;2023-01-10T13:00:32;1.03;;;0.77;;
38023;SDS011;23834;48.080;11.682;2023-01-10T13:02:59;1.13;;;0.90;;
38023;SDS011;23834;48.080;11.682;2023-01-10T13:05:26;1.20;;;1.10;;
38023;SDS011;23834;48.080;11.682;2023-01-10T13:07:53;1.33;;;0.97;;
38023;SDS011;23834;48.080;11.682;2023-01-10T13:10:20;1.43;;;0.90;;
38023;SDS011;23834;48.080;11.682;2023-01-10T13:12:51;0.80;;;0.53;;
38023;SDS011;23834;48.080;11.682;2023-01-10T13:15:20;1.40;;;0.80;;
38023;SDS011;23834;48.080;11.682;2023-01-10T13:17:47;0.90;;;0.90;;
38023;SDS011;23834;48.080;11.682;2023-01-10T13:20:17;1.27;;;0.87;;
38023;SDS011;23834;48.080;11.682;2023-01-10T13:22:42;0.70;;;0.70;;
38023;SDS011;23834;48.080;11.682;2023-01-10T13:25:19;0.83;;;0.83;;
38023;SDS011;23834;48.080;11.682;2023-01-10T13:27:45;1.77;;;0.60;;
38023;SDS011;23834;48.080;11.682;2023-01-10T13:32:56;1.20;;;0.60;;
38023;SDS011;23834;48.080;11.682;2023-01-10T13:35:23;1.40;;;0.90;;
38023;SDS011;23834;48.080;11.682;2023-01-10T13:37:50;1.10;;;1.00;;
38023;SDS011;23834;48.080;11.682;2023-01-10T13:40:20;1.03;;;0.73;;
38023;SDS011;23834;48.080;11.682;2023-01-10T13:42:46;1.20;;;1.10;;
38023;SDS011;23834;48.080;11.682;2023-01-10T13:45:43;1.47;;;1.20;;
38023;SDS011;23834;48.080;11.682;2023-01-10T13:48:25;0.70;;;0.60;;
38023;SDS011;23834;48.080;11.682;2023-01-10T13:50:56;1.43;;;1.20;;
38023;SDS011;23834;48.080;11.682;2023-01-10T13:55:56;1.63;;;0.80;;
38023;SDS011;23834;48.080;11.682;2023-01-10T14:01:23;0.60;;;0.60;;
38023;SDS011;23834;48.080;11.682;2023-01-10T14:04:16;0.90;;;0.80;;
38023;SDS011;23834;48.080;11.682;2023-01-10T14:06:42;1.20;;;0.70;;
38023;SDS011;23834;48.080;11.682;2023-01-10T14:14:12;1.80;;;0.97;;
38023;SDS011;23834;48.080;11.682;2023-01-10T14:16:42;1.37;;;0.70;;
38023;SDS011;23834;48.080;11.682;2023-01-10T14:19:22;0.83;;;0.83;;
38023;SDS011;23834;48.080;11.682;2023-01-10T14:21:50;2.23;;;0.80;;
38023;SDS011;23834;48.080;11.682;2023-01-10T14:24:23;0.70;;;0.70;;
38023;SDS011;23834;48.080;11.682;2023-01-10T14:26:49;0.83;;;0.63;;
38023;SDS011;23834;48.080;11.682;2023-01-10T14:29:16;1.13;;;0.73;;
38023;SDS011;23834;48.080;11.682;2023-01-10T14:31:42;0.80;;;0.80;;
38023;SDS011;23834;48.080;11.682;2023-01-10T14:34:09;0.90;;;0.90;;
38023;SDS011;23834;48.080;11.682;2023-01-10T14:36:41;2.20;;;1.00;;
38023;SDS011;23834;48.080;11.682;2023-01-10T14:39:09;1.40;;;0.63;;
38023;SDS011;23834;48.080;11.682;2023-01-10T14:41:42;1.27;;;0.70;;
38023;SDS011;23834;48.080;11.682;2023-01-10T14:44:12;1.07;;;0.97;;
38023;SDS011;23834;48.080;11.682;2023-01-10T14:46:42;1.10;;;1.00;;
38023;SDS011;23834;48.080;11.682;2023-01-10T14:49:22;1.30;;;0.87;;
38023;SDS011;23834;48.080;11.682;2023-01-10T14:51:48;1.27;;;0.80;;
38023;SDS011;23834;48.080;11.682;2023-01-10T14:54:14;1.83;;;0.80;;
38023;SDS011;23834;48.080;11.682;2023-01-10T14:56:42;0.70;;;0.70;;
38023;SDS011;23834;48.080;11.682;2023-01-10T15:01:42;0.80;;;0.70;;
38023;SDS011;23834;48.080;11.682;2023-01-10T15:04:14;0.77;;;0.70;;
38023;SDS011;23834;48.080;11.682;2023-01-10T15:06:53;1.17;;;0.80;;
38023;SDS011;23834;48.080;11.682;2023-01-10T15:09:19;3.03;;;1.10;;
38023;SDS011;23834;48.080;11.682;2023-01-10T15:11:44;0.60;;;0.60;;
38023;SDS011;23834;48.080;11.682;2023-01-10T15:14:10;0.80;;;0.80;;
38023;SDS011;23834;48.080;11.682;2023-01-10T15:16:41;0.80;;;0.77;;
38023;SDS011;23834;48.080;11.682;2023-01-10T15:19:09;1.63;;;0.87;;
38023;SDS011;23834;48.080;11.682;2023-01-10T15:21:39;0.77;;;0.77;;
38023;SDS011;23834;48.080;11.682;2023-01-10T15:24:21;0.70;;;0.70;;
38023;SDS011;23834;48.080;11.682;2023-01-10T15:26:46;1.00;;;0.80;;
38023;SDS011;23834;48.080;11.682;2023-01-10T15:29:16;1.80;;;0.90;;
38023;SDS011;23834;48.080;11.682;2023-01-10T15:31:44;1.43;;;0.60;;
38023;SDS011;23834;48.080;11.682;2023-01-10T15:34:13;1.93;;;0.80;;
38023;SDS011;23834;48.080;11.682;2023-01-10T15:36:41;1.17;;;0.90;;
38023;SDS011;23834;48.080;11.682;2023-01-10T15:39:11;0.90;;;0.73;;
38023;SDS011;23834;48.080;11.682;2023-01-10T15:41:37;2.17;;;0.90;;
38023;SDS011;23834;48.080;11.682;2023-01-10T15:47:30;1.00;;;0.80;;
38023;SDS011;23834;48.080;11.682;2023-01-10T15:49:57;2.93;;;1.00;;
38023;SDS011;23834;48.080;11.682;2023-01-10T15:52:23;1.10;;;0.80;;
38023;SDS011;23834;48.080;11.682;2023-01-10T15:54:48;0.80;;;0.80;;
38023;SDS011;23834;48.080;11.682;2023-01-10T15:57:26;2.43;;;1.00;;
38023;SDS011;23834;48.080;11.682;2023-01-10T15:59:53;0.97;;;0.80;;
38023;SDS011;23834;48.080;11.682;2023-01-10T16:02:22;1.07;;;0.80;;
38023;SDS011;23834;48.080;11.682;2023-01-10T16:04:50;1.20;;;0.90;;
38023;SDS011;23834;48.080;11.682;2023-01-10T16:09:57;1.53;;;0.80;;
38023;SDS011;23834;48.080;11.682;2023-01-10T16:12:25;1.07;;;0.90;;
38023;SDS011;23834;48.080;11.682;2023-01-10T16:15:13;1.00;;;0.90;;